createdAt,value
2018-09-05T00:01:58.805Z,28.60
2018-09-05T00:04:32.605Z,30.87
2018-09-05T00:07:06.728Z,30.20
2018-09-05T00:09:40.538Z,28.60
2018-09-05T00:12:14.740Z,29.27
2018-09-05T00:14:48.610Z,29.97
2018-09-05T00:17:22.586Z,30.63
2018-09-05T00:19:56.660Z,32.07
2018-09-05T00:22:30.656Z,30.53
2018-09-05T00:25:04.554Z,29.40
2018-09-05T00:27:38.516Z,29.40
2018-09-05T00:30:13.123Z,29.30
2018-09-05T00:32:47.548Z,30.10
2018-09-05T00:35:21.569Z,28.00
2018-09-05T00:37:55.561Z,28.27
2018-09-05T00:40:29.330Z,27.33
2018-09-05T00:43:03.378Z,32.97
2018-09-05T00:45:37.348Z,28.13
2018-09-05T00:48:11.305Z,28.00
2018-09-05T00:50:45.378Z,29.43
2018-09-05T00:53:19.741Z,29.53
2018-09-05T00:55:53.795Z,29.27
2018-09-05T00:58:27.645Z,29.70
2018-09-05T01:01:01.444Z,27.57
2018-09-05T01:03:35.193Z,26.03
2018-09-05T01:06:09.264Z,27.13
2018-09-05T01:08:43.165Z,28.73
2018-09-05T01:11:17.222Z,27.20
2018-09-05T01:13:52.106Z,29.23
2018-09-05T01:16:26.274Z,29.23
2018-09-05T01:19:00.900Z,26.97
2018-09-05T01:21:34.840Z,26.67
2018-09-05T01:24:08.919Z,27.03
2018-09-05T01:26:43.020Z,27.77
2018-09-05T01:29:16.924Z,27.43
2018-09-05T01:31:50.816Z,28.70
2018-09-05T01:34:24.849Z,28.30
2018-09-05T01:36:59.056Z,28.60
2018-09-05T01:39:33.198Z,28.43
2018-09-05T01:42:08.164Z,28.13
2018-09-05T01:44:42.340Z,26.23
2018-09-05T01:47:16.757Z,25.67
2018-09-05T01:49:51.144Z,27.37
2018-09-05T01:52:25.073Z,26.67
2018-09-05T01:54:59.102Z,26.53
2018-09-05T01:57:33.166Z,26.07
2018-09-05T02:00:11.800Z,27.30
2018-09-05T02:02:45.743Z,25.13
2018-09-05T02:05:19.686Z,25.03
2018-09-05T02:07:53.554Z,24.90
2018-09-05T02:10:27.738Z,25.93
2018-09-05T02:13:01.958Z,25.27
2018-09-05T02:15:35.960Z,25.67
2018-09-05T02:18:10.216Z,26.33
2018-09-05T02:20:43.870Z,26.33
2018-09-05T02:23:18.380Z,26.00
2018-09-05T02:25:52.595Z,26.97
2018-09-05T02:28:26.405Z,26.73
2018-09-05T02:31:00.303Z,27.90
2018-09-05T02:33:34.408Z,24.70
2018-09-05T02:36:08.439Z,23.40
2018-09-05T02:38:49.023Z,25.47
2018-09-05T02:41:22.935Z,25.73
2018-09-05T02:44:02.309Z,25.97
2018-09-05T02:46:36.310Z,26.57
2018-09-05T02:49:10.504Z,24.90
2018-09-05T02:51:44.535Z,27.03
2018-09-05T02:54:18.281Z,25.13
2018-09-05T02:56:52.173Z,26.43
2018-09-05T02:59:26.059Z,25.30
2018-09-05T03:02:00.305Z,27.30
2018-09-05T03:04:34.566Z,24.40
2018-09-05T03:07:08.614Z,25.60
2018-09-05T03:09:43.099Z,23.67
2018-09-05T03:12:18.878Z,24.30
2018-09-05T03:14:52.869Z,25.50
2018-09-05T03:17:26.814Z,25.77
2018-09-05T03:20:00.829Z,26.07
2018-09-05T03:22:34.718Z,23.77
2018-09-05T03:25:08.532Z,23.10
2018-09-05T03:27:42.462Z,24.33
2018-09-05T03:30:47.404Z,26.40
2018-09-05T03:33:21.333Z,27.80
2018-09-05T03:35:55.178Z,25.63
2018-09-05T03:38:29.245Z,24.80
2018-09-05T03:41:03.209Z,25.47
2018-09-05T03:43:37.356Z,25.60
2018-09-05T03:46:11.423Z,24.27
2018-09-05T03:48:45.330Z,24.83
2018-09-05T03:51:20.216Z,23.53
2018-09-05T03:53:54.009Z,25.13
2018-09-05T03:56:27.897Z,26.73
2018-09-05T03:59:02.000Z,25.07
2018-09-05T04:01:36.008Z,22.87
2018-09-05T04:04:09.931Z,23.57
2018-09-05T04:06:43.783Z,25.13
2018-09-05T04:09:17.773Z,25.83
2018-09-05T04:11:51.543Z,25.97
2018-09-05T04:14:25.558Z,25.60
2018-09-05T04:17:00.780Z,24.40
2018-09-05T04:19:34.905Z,26.00
2018-09-05T04:22:08.651Z,28.07
2018-09-05T04:24:42.739Z,25.27
2018-09-05T04:27:16.678Z,24.10
2018-09-05T04:29:50.918Z,24.90
2018-09-05T04:32:24.981Z,23.97
2018-09-05T04:34:58.930Z,27.03
2018-09-05T04:37:32.829Z,23.93
2018-09-05T04:40:07.695Z,24.90
2018-09-05T04:42:41.674Z,25.57
2018-09-05T04:45:15.413Z,26.73
2018-09-05T04:47:49.455Z,25.63
2018-09-05T04:50:30.177Z,25.80
2018-09-05T04:53:04.126Z,25.17
2018-09-05T04:55:38.206Z,28.80
2018-09-05T04:58:12.101Z,25.70
2018-09-05T05:00:46.008Z,24.40
2018-09-05T05:03:20.099Z,24.17
2018-09-05T05:05:54.266Z,25.73
2018-09-05T05:08:28.284Z,25.23
2018-09-05T05:11:02.561Z,25.47
2018-09-05T05:13:36.579Z,25.57
2018-09-05T05:16:10.550Z,25.17
2018-09-05T05:18:44.488Z,23.27
2018-09-05T05:21:18.679Z,23.47
2018-09-05T05:23:52.656Z,25.10
2018-09-05T05:26:26.952Z,26.60
2018-09-05T05:29:01.017Z,27.40
2018-09-05T05:31:34.775Z,24.10
2018-09-05T05:34:08.768Z,25.03
2018-09-05T05:36:42.555Z,24.50
2018-09-05T05:39:16.389Z,24.43
2018-09-05T05:41:50.475Z,24.73
2018-09-05T05:44:24.431Z,23.20
2018-09-05T05:46:58.430Z,21.60
2018-09-05T05:49:32.380Z,22.67
2018-09-05T05:52:06.914Z,27.73
2018-09-05T05:54:41.036Z,25.60
2018-09-05T05:57:14.990Z,27.10
2018-09-05T05:59:48.985Z,26.93
2018-09-05T06:02:23.021Z,25.07
2018-09-05T06:04:56.906Z,26.97
2018-09-05T06:07:30.870Z,24.30
2018-09-05T06:10:05.029Z,28.33
2018-09-05T06:12:38.999Z,27.60
2018-09-05T06:15:13.029Z,25.80
2018-09-05T06:17:46.867Z,30.20
2018-09-05T06:20:20.929Z,25.50
2018-09-05T06:22:54.785Z,25.10
2018-09-05T06:25:28.889Z,26.27
2018-09-05T06:28:03.602Z,24.40
2018-09-05T06:30:37.646Z,24.20
2018-09-05T06:33:11.386Z,23.33
2018-09-05T06:35:45.654Z,23.73
2018-09-05T06:38:19.440Z,21.17
2018-09-05T06:40:53.896Z,23.33
2018-09-05T06:43:27.754Z,23.00
2018-09-05T06:46:02.063Z,24.47
2018-09-05T06:48:36.541Z,22.63
2018-09-05T06:51:10.769Z,22.67
2018-09-05T06:53:45.248Z,23.67
2018-09-05T06:56:19.179Z,21.57
2018-09-05T06:58:53.219Z,20.97
2018-09-05T07:01:27.576Z,24.00
2018-09-05T07:04:08.329Z,22.87
2018-09-05T07:06:45.606Z,22.80
2018-09-05T07:09:19.561Z,23.25
2018-09-05T07:11:53.450Z,21.68
2018-09-05T07:14:27.497Z,20.05
2018-09-05T07:17:01.629Z,20.37
2018-09-05T07:19:35.459Z,20.48
2018-09-05T07:22:09.500Z,19.87
2018-09-05T07:24:43.262Z,20.17
2018-09-05T07:27:17.330Z,19.82
2018-09-05T07:29:51.412Z,20.35
2018-09-05T07:32:25.597Z,19.17
2018-09-05T07:34:59.731Z,18.90
2018-09-05T07:37:33.739Z,17.77
2018-09-05T07:40:07.836Z,18.37
2018-09-05T07:42:41.659Z,18.80
2018-09-05T07:45:15.682Z,16.87
2018-09-05T07:47:49.784Z,15.83
2018-09-05T07:50:23.754Z,15.45
2018-09-05T07:52:57.609Z,16.02
2018-09-05T07:55:31.432Z,14.18
2018-09-05T07:58:05.688Z,13.85
2018-09-05T08:00:39.745Z,15.93
2018-09-05T08:03:14.236Z,15.35
2018-09-05T08:05:48.274Z,16.85
2018-09-05T08:08:22.334Z,15.30
2018-09-05T08:10:56.321Z,15.05
2018-09-05T08:13:30.675Z,13.22
2018-09-05T08:16:05.183Z,14.05
2018-09-05T08:18:39.158Z,14.83
2018-09-05T08:21:13.897Z,13.25
2018-09-05T08:23:47.839Z,13.95
2018-09-05T08:26:21.945Z,13.93
2018-09-05T08:28:55.746Z,12.60
2018-09-05T08:31:29.844Z,12.23
2018-09-05T08:34:03.812Z,11.35
2018-09-05T08:36:38.203Z,10.98
2018-09-05T08:39:13.643Z,10.50
2018-09-05T08:41:47.660Z,9.40
2018-09-05T08:44:21.527Z,9.78
2018-09-05T08:46:55.657Z,10.25
2018-09-05T08:49:29.883Z,9.90
2018-09-05T08:52:03.758Z,9.33
2018-09-05T08:54:38.818Z,9.95
2018-09-05T08:57:13.070Z,11.08
2018-09-05T08:59:47.439Z,8.78
2018-09-05T09:02:21.633Z,9.25
2018-09-05T09:04:55.708Z,9.15
2018-09-05T09:07:29.693Z,9.03
2018-09-05T09:10:04.242Z,8.18
2018-09-05T09:12:38.412Z,8.65
2018-09-05T09:15:12.369Z,8.00
2018-09-05T09:17:46.206Z,10.18
2018-09-05T09:20:20.230Z,10.08
2018-09-05T09:22:54.471Z,8.60
2018-09-05T09:25:28.330Z,8.15
2018-09-05T09:28:02.581Z,8.80
2018-09-05T09:30:36.505Z,8.85
2018-09-05T09:33:10.604Z,7.87
2018-09-05T09:35:44.562Z,7.40
2018-09-05T09:38:18.833Z,8.15
2018-09-05T09:40:52.639Z,9.30
2018-09-05T09:43:26.867Z,8.83
2018-09-05T09:46:00.784Z,8.38
2018-09-05T09:48:34.797Z,8.33
2018-09-05T09:51:08.683Z,8.73
2018-09-05T09:53:42.786Z,8.48
2018-09-05T09:56:16.601Z,8.15
2018-09-05T09:58:50.500Z,8.18
2018-09-05T10:01:30.224Z,8.10
2018-09-05T10:04:09.852Z,8.08
2018-09-05T10:06:50.251Z,7.30
2018-09-05T10:09:33.089Z,7.42
2018-09-05T10:12:12.526Z,7.53
2018-09-05T10:14:52.198Z,9.53
2018-09-05T10:17:33.635Z,9.00
2018-09-05T10:20:07.934Z,8.08
2018-09-05T10:22:41.798Z,10.00
2018-09-05T10:25:15.980Z,9.68
2018-09-05T10:27:49.970Z,8.25
2018-09-05T10:30:24.167Z,9.00
2018-09-05T10:32:58.688Z,8.50
2018-09-05T10:35:32.734Z,8.95
2018-09-05T10:38:06.739Z,10.38
2018-09-05T10:40:41.167Z,8.20
2018-09-05T10:43:15.995Z,10.35
2018-09-05T10:45:49.879Z,7.97
2018-09-05T10:48:24.231Z,8.88
2018-09-05T10:50:58.135Z,8.10
2018-09-05T10:53:31.999Z,8.43
2018-09-05T10:56:06.892Z,8.03
2018-09-05T10:58:40.973Z,7.85
2018-09-05T11:01:15.124Z,10.55
2018-09-05T11:03:49.221Z,8.45
2018-09-05T11:06:23.117Z,8.28
2018-09-05T11:08:57.300Z,7.97
2018-09-05T11:11:31.131Z,8.98
2018-09-05T11:14:05.376Z,7.60
2018-09-05T11:16:39.720Z,9.33
2018-09-05T11:19:13.744Z,8.05
2018-09-05T11:21:47.676Z,10.95
2018-09-05T11:24:21.560Z,9.30
2018-09-05T11:26:55.548Z,8.33
2018-09-05T11:29:29.406Z,8.15
2018-09-05T11:32:03.629Z,7.60
2018-09-05T11:34:37.584Z,7.50
2018-09-05T11:37:11.764Z,7.55
2018-09-05T11:39:45.460Z,7.85
2018-09-05T11:42:19.274Z,7.65
2018-09-05T11:44:53.171Z,8.13
2018-09-05T11:47:27.429Z,7.55
2018-09-05T11:50:01.658Z,7.95
2018-09-05T11:52:35.620Z,7.45
2018-09-05T11:55:09.472Z,10.03
2018-09-05T11:57:43.451Z,7.97
2018-09-05T12:00:18.015Z,7.40
2018-09-05T12:02:52.194Z,8.10
2018-09-05T12:05:26.370Z,7.05
2018-09-05T12:08:00.396Z,7.85
2018-09-05T12:10:34.406Z,6.78
2018-09-05T12:13:08.220Z,6.92
2018-09-05T12:15:42.358Z,8.58
2018-09-05T12:18:16.358Z,10.90
2018-09-05T12:20:50.377Z,7.55
2018-09-05T12:23:24.486Z,8.50
2018-09-05T12:25:58.673Z,6.90
2018-09-05T12:28:32.839Z,7.37
2018-09-05T12:31:06.906Z,7.78
2018-09-05T12:33:40.867Z,7.22
2018-09-05T12:36:15.171Z,6.62
2018-09-05T12:38:49.130Z,6.70
2018-09-05T12:41:23.063Z,6.58
2018-09-05T12:43:57.125Z,7.12
2018-09-05T12:46:31.956Z,6.42
2018-09-05T12:49:06.015Z,7.25
2018-09-05T12:51:40.218Z,7.00
2018-09-05T12:54:14.410Z,7.15
2018-09-05T12:56:48.965Z,7.85
2018-09-05T12:59:23.022Z,6.00
2018-09-05T13:01:57.019Z,7.30
2018-09-05T13:04:31.062Z,6.05
2018-09-05T13:07:05.234Z,6.42
2018-09-05T13:09:39.204Z,6.90
2018-09-05T13:12:13.512Z,6.00
2018-09-05T13:14:47.542Z,6.25
2018-09-05T13:17:21.660Z,6.58
2018-09-05T13:19:55.776Z,6.58
2018-09-05T13:22:29.768Z,6.67
2018-09-05T13:25:03.867Z,6.95
2018-09-05T13:27:37.744Z,7.30
2018-09-05T13:30:11.913Z,7.78
2018-09-05T13:32:46.091Z,5.83
2018-09-05T13:35:20.305Z,6.97
2018-09-05T13:37:54.199Z,5.42
2018-09-05T13:40:28.091Z,6.62
2018-09-05T13:43:02.961Z,6.10
2018-09-05T13:45:37.315Z,6.45
2018-09-05T13:48:12.134Z,6.30
2018-09-05T13:50:46.375Z,8.10
2018-09-05T13:53:20.249Z,7.60
2018-09-05T13:55:54.121Z,6.60
2018-09-05T13:58:28.506Z,6.80
2018-09-05T14:01:02.627Z,6.37
2018-09-05T14:03:36.952Z,6.70
2018-09-05T14:06:10.849Z,6.95
2018-09-05T14:08:44.824Z,6.97
2018-09-05T14:11:18.780Z,8.58
2018-09-05T14:13:52.887Z,7.45
2018-09-05T14:16:26.999Z,7.12
2018-09-05T14:19:00.871Z,7.67
2018-09-05T14:21:34.764Z,7.30
2018-09-05T14:24:08.700Z,6.35
2018-09-05T14:26:42.810Z,8.15
2018-09-05T14:29:16.631Z,7.12
2018-09-05T14:31:50.729Z,7.08
2018-09-05T14:34:24.761Z,6.90
2018-09-05T14:36:58.779Z,6.95
2018-09-05T14:39:32.756Z,6.55
2018-09-05T14:42:06.896Z,7.08
2018-09-05T14:44:41.076Z,7.58
2018-09-05T14:47:14.929Z,7.58
2018-09-05T14:49:49.215Z,9.30
2018-09-05T14:52:23.596Z,7.33
2018-09-05T14:54:57.551Z,7.20
2018-09-05T14:57:31.625Z,8.90
2018-09-05T15:00:05.971Z,7.70
2018-09-05T15:02:40.149Z,7.28
2018-09-05T15:05:14.017Z,7.17
2018-09-05T15:07:49.442Z,8.50
2018-09-05T15:10:24.216Z,8.43
2018-09-05T15:12:58.061Z,7.00
2018-09-05T15:15:32.081Z,8.45
2018-09-05T15:18:06.214Z,7.92
2018-09-05T15:20:40.699Z,6.90
2018-09-05T15:23:14.535Z,7.75
2018-09-05T15:25:48.353Z,7.90
2018-09-05T15:28:22.440Z,12.33
2018-09-05T15:30:56.412Z,9.98
2018-09-05T15:33:30.396Z,7.62
2018-09-05T15:36:04.754Z,8.28
2018-09-05T15:38:38.502Z,9.23
2018-09-05T15:41:12.424Z,6.62
2018-09-05T15:43:46.417Z,7.08
2018-09-05T15:46:20.557Z,12.00
2018-09-05T15:48:54.411Z,7.00
2018-09-05T15:51:28.679Z,9.40
2018-09-05T15:54:03.036Z,7.28
2018-09-05T15:56:37.380Z,7.72
2018-09-05T15:59:11.276Z,7.97
2018-09-05T16:01:45.409Z,7.22
2018-09-05T16:04:19.658Z,7.95
2018-09-05T16:06:53.539Z,9.68
2018-09-05T16:09:27.754Z,6.53
2018-09-05T16:12:01.755Z,7.80
2018-09-05T16:14:35.836Z,9.05
2018-09-05T16:17:09.894Z,7.22
2018-09-05T16:19:44.022Z,8.48
2018-09-05T16:22:18.070Z,7.78
2018-09-05T16:24:52.194Z,7.95
2018-09-05T16:27:26.249Z,7.85
2018-09-05T16:30:05.476Z,8.15
2018-09-05T16:32:39.440Z,8.78
2018-09-05T16:35:13.449Z,7.03
2018-09-05T16:37:48.142Z,7.28
2018-09-05T16:40:22.404Z,8.60
2018-09-05T16:42:56.349Z,7.15
2018-09-05T16:45:31.289Z,10.15
2018-09-05T16:48:05.971Z,7.60
2018-09-05T16:50:40.157Z,6.12
2018-09-05T16:53:14.171Z,8.48
2018-09-05T16:55:48.875Z,9.85
2018-09-05T16:58:23.014Z,7.03
2018-09-05T17:00:58.019Z,9.18
2018-09-05T17:03:31.768Z,9.95
2018-09-05T17:06:05.995Z,8.85
2018-09-05T17:08:40.004Z,7.42
2018-09-05T17:11:14.101Z,8.28
2018-09-05T17:13:48.783Z,7.17
2018-09-05T17:16:23.052Z,9.03
2018-09-05T17:18:58.291Z,10.05
2018-09-05T17:21:32.859Z,7.17
2018-09-05T17:24:07.094Z,7.62
2018-09-05T17:26:41.281Z,9.65
2018-09-05T17:29:15.153Z,7.70
2018-09-05T17:31:49.732Z,9.13
2018-09-05T17:34:23.823Z,9.45
2018-09-05T17:36:57.957Z,7.80
2018-09-05T17:39:32.214Z,7.60
2018-09-05T17:42:06.381Z,11.22
2018-09-05T17:44:40.641Z,10.78
2018-09-05T17:47:14.691Z,8.33
2018-09-05T17:49:49.578Z,9.00
2018-09-05T17:52:24.116Z,10.25
2018-09-05T17:54:58.204Z,8.25
2018-09-05T17:57:32.494Z,10.95
2018-09-05T18:00:06.817Z,7.90
2018-09-05T18:02:40.985Z,9.25
2018-09-05T18:05:15.361Z,7.78
2018-09-05T18:07:49.481Z,7.33
2018-09-05T18:10:23.386Z,11.75
2018-09-05T18:12:57.280Z,10.80
2018-09-05T18:15:31.078Z,7.60
2018-09-05T18:18:05.140Z,9.20
2018-09-05T18:20:39.261Z,8.23
2018-09-05T18:23:13.638Z,8.00
2018-09-05T18:25:47.641Z,9.73
2018-09-05T18:28:21.852Z,8.08
2018-09-05T18:30:55.862Z,8.28
2018-09-05T18:33:30.121Z,8.50
2018-09-05T18:36:04.323Z,7.53
2018-09-05T18:38:38.372Z,7.83
2018-09-05T18:41:12.443Z,11.45
2018-09-05T18:43:46.899Z,10.55
2018-09-05T18:46:21.080Z,7.85
2018-09-05T18:48:55.352Z,8.60
2018-09-05T18:51:29.071Z,8.00
2018-09-05T18:54:03.291Z,8.65
2018-09-05T18:56:37.216Z,7.50
2018-09-05T18:59:11.499Z,7.90
2018-09-05T19:01:45.417Z,9.73
2018-09-05T19:04:19.325Z,7.10
2018-09-05T19:06:53.590Z,9.00
2018-09-05T19:09:27.834Z,7.42
2018-09-05T19:12:01.910Z,7.53
2018-09-05T19:14:36.070Z,10.18
2018-09-05T19:17:10.196Z,7.87
2018-09-05T19:19:44.253Z,7.85
2018-09-05T19:22:18.253Z,8.50
2018-09-05T19:24:52.410Z,8.98
2018-09-05T19:27:26.556Z,8.13
2018-09-05T19:30:00.787Z,6.70
2018-09-05T19:32:34.919Z,7.72
2018-09-05T19:35:08.879Z,9.85
2018-09-05T19:37:42.813Z,8.75
2018-09-05T19:40:16.814Z,7.10
2018-09-05T19:42:50.840Z,8.55
2018-09-05T19:45:25.176Z,9.30
2018-09-05T19:47:59.796Z,8.28
2018-09-05T19:50:34.104Z,8.20
2018-09-05T19:53:08.125Z,8.90
2018-09-05T19:55:42.305Z,9.15
2018-09-05T19:58:16.250Z,8.03
2018-09-05T20:00:50.440Z,7.72
2018-09-05T20:03:25.176Z,7.67
2018-09-05T20:05:59.696Z,9.18
2018-09-05T20:08:33.784Z,9.20
2018-09-05T20:11:07.965Z,8.88
2018-09-05T20:13:42.248Z,8.40
2018-09-05T20:16:16.343Z,9.75
2018-09-05T20:18:50.975Z,8.83
2018-09-05T20:21:24.920Z,9.55
2018-09-05T20:23:59.174Z,8.63
2018-09-05T20:26:33.392Z,10.38
2018-09-05T20:29:07.535Z,8.55
2018-09-05T20:31:41.778Z,9.35
2018-09-05T20:34:15.587Z,8.65
2018-09-05T20:36:49.640Z,12.07
2018-09-05T20:39:23.538Z,8.88
2018-09-05T20:41:57.669Z,8.40
2018-09-05T20:44:31.521Z,8.70
2018-09-05T20:47:05.530Z,8.85
2018-09-05T20:49:39.715Z,9.08
2018-09-05T20:52:13.712Z,10.82
2018-09-05T20:54:47.899Z,9.28
2018-09-05T20:57:21.787Z,10.50
2018-09-05T20:59:55.930Z,13.20
2018-09-05T21:02:30.196Z,12.45
2018-09-05T21:05:04.725Z,10.95
2018-09-05T21:07:39.046Z,10.72
2018-09-05T21:10:13.365Z,11.78
2018-09-05T21:12:47.317Z,12.95
2018-09-05T21:15:21.506Z,9.60
2018-09-05T21:17:56.333Z,9.20
2018-09-05T21:20:30.654Z,15.40
2018-09-05T21:23:05.280Z,8.85
2018-09-05T21:25:39.227Z,12.80
2018-09-05T21:28:13.315Z,9.30
2018-09-05T21:30:47.441Z,9.58
2018-09-05T21:33:21.450Z,11.30
2018-09-05T21:35:56.221Z,9.03
2018-09-05T21:38:30.244Z,11.15
2018-09-05T21:41:04.439Z,9.48
2018-09-05T21:43:38.708Z,16.40
2018-09-05T21:46:12.644Z,11.28
2018-09-05T21:48:46.804Z,10.80
2018-09-05T21:51:20.930Z,13.20
2018-09-05T21:53:54.792Z,10.72
2018-09-05T21:56:28.809Z,10.95
2018-09-05T21:59:02.764Z,10.58
2018-09-05T22:01:37.341Z,10.90
2018-09-05T22:04:11.402Z,12.95
2018-09-05T22:06:46.460Z,12.98
2018-09-05T22:09:20.376Z,12.93
2018-09-05T22:11:54.258Z,10.30
2018-09-05T22:14:28.226Z,11.73
2018-09-05T22:17:02.069Z,11.83
2018-09-05T22:19:35.921Z,11.22
2018-09-05T22:22:09.720Z,9.80
2018-09-05T22:24:43.689Z,10.80
2018-09-05T22:27:17.636Z,10.85
2018-09-05T22:29:51.919Z,10.00
2018-09-05T22:32:25.775Z,10.48
2018-09-05T22:34:59.656Z,9.10
2018-09-05T22:37:34.929Z,9.43
2018-09-05T22:40:09.080Z,10.35
2018-09-05T22:42:54.518Z,9.58
2018-09-05T22:47:53.035Z,10.28
2018-09-05T22:50:46.964Z,9.68
2018-09-05T22:53:40.446Z,8.68
2018-09-05T22:57:27.001Z,9.50
2018-09-05T23:00:15.220Z,8.15
2018-09-05T23:04:02.145Z,9.50
2018-09-05T23:06:47.389Z,11.25
2018-09-05T23:10:35.512Z,8.33
2018-09-05T23:14:24.583Z,12.53
2018-09-05T23:19:14.389Z,10.35
2018-09-05T23:21:48.439Z,9.95
2018-09-05T23:24:22.959Z,9.10
2018-09-05T23:26:57.081Z,9.53
2018-09-05T23:29:30.991Z,10.15
2018-09-05T23:32:11.984Z,9.38
2018-09-05T23:34:46.229Z,9.00
2018-09-05T23:37:20.129Z,12.18
2018-09-05T23:39:54.311Z,8.68
2018-09-05T23:42:28.120Z,8.60
2018-09-05T23:45:02.731Z,8.03
2018-09-05T23:47:36.690Z,13.32
2018-09-05T23:50:10.631Z,9.13
2018-09-05T23:52:45.219Z,9.10
2018-09-05T23:55:18.960Z,13.28
2018-09-05T23:57:53.863Z,8.43
